Aviano, Italy

1:55 AM CEST on September 03, 2014 (GMT +0200)
Aviano USAFB | Change Station
CLOSE
Current Station
Airport
Location: Aviano USAFB,
Elevation: 413 ft
Nearby Weather Stations
Active Advisory: Rain

Elev 413 ft 46.03 °N, 12.60 °E | Updated 2 minutes ago

Partly Cloudy
Partly Cloudy
63 °F
Feels Like 63 °F
N
0
Wind Variable Wind from North

Today
High -- | Low -- °F
--% Chance of Precip.
Yesterday
High -- | Low -- °F
Precip. -- in
6:32 AM 7:44 PM
First Quarter, 56% visible
Pressure 29.92 in
Visibility 6.2 miles
Clouds Few 6500 ft
Dew Point 63 °F
Humidity 100%
Rainfall 0.00 in
Snow Depth Not available.
UV 0 out of 12
Pollen Not available.
Air Quality Not available.
Flu Activity Not available.
SPECI LIYW 022353Z AUTO 00000KT 9999 FEW065 17/17 A2992 RMK AO2 RAB2311E2342DZB2323E2325B2342E2352

More Conditions Fewer Conditions

Pressure 29.92 in
Visibility 6.2 miles
Clouds Few 6500 ft
Dew Point 63 °F
Humidity 100%
Rainfall 0.00 in
Snow Depth Not available.
UV 0 out of 12
Pollen Not available.
Air Quality Not available.
Flu Activity Not available.
SPECI LIYW 022353Z AUTO 00000KT 9999 FEW065 17/17 A2992 RMK AO2 RAB2311E2342DZB2323E2325B2342E2352

More Conditions Fewer Conditions

10-Day Weather Forecast

Almanac

Astronomy

Sep. 03, 2014 Rise Set
Actual Time 6:32 AM CEST 7:44 PM CEST
Civil Twilight 6:01 AM CEST 8:15 PM CEST
Nautical Twilight 5:24 AM CEST 8:52 PM CEST
Astronomical Twilight 4:45 AM CEST 9:31 PM CEST
Moon 3:20 PM CEST (9/3) 12:01 AM CEST (9/3)
Length of Visible Light 14h 13m
Length of Day
13h 12m
Tomorrow will be 3m 9s shorter.
First Quarter, 56% of the Moon is Illuminated
Sep 2
First Quarter
Sep 8
Full
Sep 15
Last Quarter
Sep 24
New
Oct 1
First Quarter

Yesterday's Extremes

Country Highs Country Lows

Community

WunderPhotos

Upload Photos

1,749,799 photos uploaded!

Nearby

Snow Depth

Not available.

Earthquake Activity

City Distance Mag. Time & Date
No recent earthquake activity has been reported nearby.
Minimum magnitude displayed is 2.5.

Coastal Water Temperatures

Place Temperature
No Stations Reporting

Nearby Weather Stations